createdAt,value
2022-12-22T00:01:49.722Z,98485.16
2022-12-22T00:04:55.151Z,98480.81
2022-12-22T00:08:00.032Z,98473.69
2022-12-22T00:11:05.295Z,98473.72
2022-12-22T00:14:10.306Z,98467.66
2022-12-22T00:17:20.418Z,98438.44
2022-12-22T00:20:37.469Z,98471.75
2022-12-22T00:23:42.630Z,98474.28
2022-12-22T00:26:49.743Z,98453.53
2022-12-22T00:30:01.413Z,98475.75
2022-12-22T00:33:07.935Z,98467.97
2022-12-22T00:36:12.664Z,98469.63
2022-12-22T00:39:17.783Z,98445.63
2022-12-22T00:42:22.867Z,98456.75
2022-12-22T00:45:28.351Z,98446.38
2022-12-22T00:48:43.097Z,98450.59
2022-12-22T00:51:49.254Z,98443.88
2022-12-22T00:54:54.387Z,98466.09
2022-12-22T00:58:01.438Z,98458.41
2022-12-22T01:01:06.297Z,98438.72
2022-12-22T01:04:11.523Z,98435.34
2022-12-22T01:07:16.829Z,98408.91
2022-12-22T01:10:22.233Z,98449.19
2022-12-22T01:13:30.227Z,98442.31
2022-12-22T01:16:35.770Z,98430.44
2022-12-22T01:19:40.802Z,98449.34
2022-12-22T01:22:46.804Z,98464.03
2022-12-22T01:25:51.766Z,98442.59
2022-12-22T01:28:56.956Z,98415.25
2022-12-22T01:32:01.786Z,98426.41
2022-12-22T01:35:06.554Z,98428.97
2022-12-22T01:38:11.592Z,98430.75
2022-12-22T01:41:18.299Z,98413.59
2022-12-22T01:44:32.248Z,98421.25
2022-12-22T01:47:46.267Z,98420.53
2022-12-22T01:50:54.829Z,98411.91
2022-12-22T01:54:00.216Z,98410.25
2022-12-22T01:57:07.402Z,98377.56
2022-12-22T02:00:12.121Z,98381.88
2022-12-22T02:03:19.651Z,98391.28
2022-12-22T02:06:59.529Z,98393.03
2022-12-22T02:10:04.990Z,98385.25
2022-12-22T02:13:25.947Z,98391.31
2022-12-22T02:16:44.557Z,98365.59
2022-12-22T02:20:20.491Z,98387.88
2022-12-22T02:23:56.624Z,98387.81
2022-12-22T02:27:06.152Z,98389.53
2022-12-22T02:30:19.672Z,98384.41
2022-12-22T02:33:25.005Z,98384.38
2022-12-22T02:36:51.770Z,98375.81
2022-12-22T02:40:40.842Z,98370.63
2022-12-22T02:44:14.284Z,98373.31
2022-12-22T02:47:29.411Z,98387.09
2022-12-22T02:50:50.281Z,98379.38
2022-12-22T02:53:57.638Z,98377.72
2022-12-22T02:57:03.328Z,98371.63
2022-12-22T03:00:08.366Z,98345.91
2022-12-22T03:03:13.311Z,98349.22
2022-12-22T03:06:18.440Z,98338.19
2022-12-22T03:09:23.375Z,98348.53
2022-12-22T03:12:28.388Z,98341.63
2022-12-22T03:15:33.432Z,98337.34
2022-12-22T03:18:38.541Z,98340.03
2022-12-22T03:21:43.461Z,98332.28
2022-12-22T03:24:48.227Z,98303.88
2022-12-22T03:27:34.573Z,98325.25
2022-12-22T03:30:20.777Z,98319.25
2022-12-22T03:33:07.479Z,98310.63
2022-12-22T03:35:54.415Z,98308.81
2022-12-22T03:38:40.797Z,98300.28
2022-12-22T03:41:45.878Z,98281.31
2022-12-22T03:44:51.156Z,98310.50
2022-12-22T03:47:37.375Z,98300.28
2022-12-22T03:50:23.762Z,98280.47
2022-12-22T03:53:10.452Z,98307.00
2022-12-22T03:55:56.793Z,98297.66
2022-12-22T03:58:43.307Z,98277.06
2022-12-22T04:01:29.961Z,98295.06
2022-12-22T04:04:18.949Z,98299.38
2022-12-22T04:07:05.348Z,98272.00
2022-12-22T04:10:10.647Z,98296.78
2022-12-22T04:12:57.034Z,98260.75
2022-12-22T04:15:43.195Z,98273.66
2022-12-22T04:18:29.540Z,98289.88
2022-12-22T04:21:16.244Z,98282.22
2022-12-22T04:24:03.076Z,98276.97
2022-12-22T04:26:50.156Z,98279.59
2022-12-22T04:29:36.758Z,98250.41
2022-12-22T04:32:22.976Z,98258.72
2022-12-22T04:35:10.129Z,98248.41
2022-12-22T04:37:56.461Z,98262.06
2022-12-22T04:40:43.061Z,98244.97
2022-12-22T04:43:29.702Z,98239.78
2022-12-22T04:46:16.146Z,98263.03
2022-12-22T04:49:02.382Z,98255.25
2022-12-22T04:51:48.860Z,98243.28
2022-12-22T04:54:35.384Z,98230.47
2022-12-22T04:57:22.104Z,98246.66
2022-12-22T05:00:10.487Z,98246.56
2022-12-22T05:02:57.238Z,98223.41
2022-12-22T05:05:43.722Z,98235.34
2022-12-22T05:08:30.290Z,98225.00
2022-12-22T05:11:16.543Z,98208.78
2022-12-22T05:14:07.227Z,98238.72
2022-12-22T05:16:53.770Z,98236.09
2022-12-22T05:19:39.986Z,98222.47
2022-12-22T05:22:26.167Z,98232.69
2022-12-22T05:25:13.148Z,98228.25
2022-12-22T05:27:59.634Z,98224.00
2022-12-22T05:30:45.802Z,98221.41
2022-12-22T05:33:32.267Z,98205.09
2022-12-22T05:36:19.137Z,98217.22
2022-12-22T05:39:05.802Z,98188.22
2022-12-22T05:41:51.977Z,98221.63
2022-12-22T05:44:38.471Z,98222.56
2022-12-22T05:47:24.927Z,98221.66
2022-12-22T05:50:13.077Z,98223.59
2022-12-22T05:52:59.655Z,98222.81
2022-12-22T05:55:45.999Z,98203.97
2022-12-22T05:58:33.103Z,98213.63
2022-12-22T06:01:19.560Z,98221.50
2022-12-22T06:04:05.923Z,98195.94
2022-12-22T06:06:52.108Z,98239.84
2022-12-22T06:09:38.887Z,98228.69
2022-12-22T06:12:25.368Z,98221.84
2022-12-22T06:15:13.192Z,98211.59
2022-12-22T06:17:59.545Z,98225.28
2022-12-22T06:20:47.144Z,98194.28
2022-12-22T06:23:33.615Z,98221.63
2022-12-22T06:26:20.602Z,98230.22
2022-12-22T06:29:07.029Z,98178.81
2022-12-22T06:31:53.342Z,98227.63
2022-12-22T06:34:39.641Z,98236.19
2022-12-22T06:37:26.385Z,98242.06
2022-12-22T06:40:12.985Z,98217.03
2022-12-22T06:43:09.586Z,98234.91
2022-12-22T06:45:56.509Z,98213.53
2022-12-22T06:48:43.108Z,98239.88
2022-12-22T06:51:29.666Z,98222.41
2022-12-22T06:54:19.468Z,98236.94
2022-12-22T06:57:08.742Z,98236.72
2022-12-22T06:59:57.626Z,98225.59
2022-12-22T07:02:44.633Z,98258.09
2022-12-22T07:05:31.806Z,98250.47
2022-12-22T07:08:18.477Z,98250.53
2022-12-22T07:11:04.760Z,98250.47
2022-12-22T07:13:50.905Z,98237.72
2022-12-22T07:16:37.256Z,98254.13
2022-12-22T07:19:23.592Z,98246.38
2022-12-22T07:22:09.868Z,98249.97
2022-12-22T07:24:56.429Z,98243.25
2022-12-22T07:27:42.803Z,98255.28
2022-12-22T07:30:29.636Z,98259.63
2022-12-22T07:33:16.143Z,98277.59
2022-12-22T07:36:05.156Z,98275.09
2022-12-22T07:38:52.073Z,98263.81
2022-12-22T07:41:57.019Z,98279.13
2022-12-22T07:44:43.261Z,98256.81
2022-12-22T07:47:35.011Z,98275.72
2022-12-22T07:50:32.770Z,98277.38
2022-12-22T07:53:19.302Z,98260.28
2022-12-22T07:56:06.357Z,98257.72
2022-12-22T07:58:52.823Z,98227.56
2022-12-22T08:01:40.203Z,98260.66
2022-12-22T08:04:27.058Z,98270.56
2022-12-22T08:07:15.019Z,98258.22
2022-12-22T08:10:01.641Z,98230.56
2022-12-22T08:12:47.973Z,98230.94
2022-12-22T08:15:34.250Z,98251.31
2022-12-22T08:18:20.938Z,98245.09
2022-12-22T08:21:08.656Z,98251.06
2022-12-22T08:23:55.400Z,98249.38
2022-12-22T08:26:46.347Z,98249.38
2022-12-22T08:29:38.695Z,98261.59
2022-12-22T08:32:24.987Z,98234.22
2022-12-22T08:35:11.240Z,98259.84
2022-12-22T08:37:57.749Z,98241.78
2022-12-22T08:40:45.396Z,98240.31
2022-12-22T08:43:33.061Z,98262.69
2022-12-22T08:46:19.519Z,98270.34
2022-12-22T08:49:06.009Z,98267.81
2022-12-22T08:51:53.022Z,98273.84
2022-12-22T08:54:39.837Z,98260.09
2022-12-22T08:57:26.162Z,98258.97
2022-12-22T09:00:13.526Z,98247.59
2022-12-22T09:03:00.493Z,98265.97
2022-12-22T09:05:46.861Z,98277.78
2022-12-22T09:08:33.360Z,98269.09
2022-12-22T09:11:19.678Z,98295.06
2022-12-22T09:14:06.567Z,98310.03
2022-12-22T09:16:52.956Z,98273.53
2022-12-22T09:19:39.647Z,98311.69
2022-12-22T09:22:28.408Z,98310.03
2022-12-22T09:25:17.906Z,98286.13
2022-12-22T09:28:07.586Z,98304.91
2022-12-22T09:30:53.967Z,98295.50
2022-12-22T09:33:40.088Z,98304.91
2022-12-22T09:36:29.506Z,98318.41
2022-12-22T09:39:16.754Z,98310.56
2022-12-22T09:42:03.590Z,98313.31
2022-12-22T09:44:51.775Z,98315.25
2022-12-22T09:47:41.833Z,98321.44
2022-12-22T09:50:30.495Z,98289.22
2022-12-22T09:53:22.397Z,98336.41
2022-12-22T09:56:14.591Z,98351.97
2022-12-22T09:59:01.251Z,98357.16
2022-12-22T10:02:27.069Z,98352.84
2022-12-22T10:05:30.782Z,98353.75
2022-12-22T10:08:31.845Z,98341.13
2022-12-22T10:11:19.042Z,98337.63
2022-12-22T10:14:05.398Z,98347.94
2022-12-22T10:17:14.374Z,98361.63
2022-12-22T10:20:19.088Z,98360.06
2022-12-22T10:23:21.756Z,98364.31
2022-12-22T10:26:30.237Z,98368.53
2022-12-22T10:29:18.317Z,98375.34
2022-12-22T10:32:13.309Z,98356.44
2022-12-22T10:35:03.050Z,98358.88
2022-12-22T10:37:49.695Z,98347.75
2022-12-22T10:40:46.396Z,98361.44
2022-12-22T10:43:37.344Z,98358.72
2022-12-22T10:46:51.881Z,98350.97
2022-12-22T10:52:31.952Z,98350.84
2022-12-22T10:55:28.496Z,98349.00
2022-12-22T10:58:21.647Z,98358.53
2022-12-22T11:01:11.239Z,98365.38
2022-12-22T11:04:14.325Z,98348.97
2022-12-22T11:07:10.198Z,98355.72
2022-12-22T11:09:56.627Z,98346.13
2022-12-22T11:13:20.003Z,98363.19
2022-12-22T11:16:09.797Z,98352.84
2022-12-22T11:19:24.358Z,98356.19
2022-12-22T11:22:34.198Z,98341.34
2022-12-22T11:25:40.148Z,98323.25
2022-12-22T11:29:11.297Z,98333.84
2022-12-22T11:32:40.030Z,98279.03
2022-12-22T11:35:42.200Z,98345.81
2022-12-22T11:38:34.692Z,98346.63
2022-12-22T11:41:33.540Z,98337.06
2022-12-22T11:44:39.858Z,98340.56
2022-12-22T11:47:43.470Z,98318.44
2022-12-22T11:51:06.596Z,98350.91
2022-12-22T11:54:34.634Z,98357.50
2022-12-22T11:57:32.702Z,98362.75
2022-12-22T12:00:19.875Z,98356.97
2022-12-22T12:03:24.143Z,98359.03
2022-12-22T12:06:23.541Z,98342.81
2022-12-22T12:09:35.432Z,98361.53
2022-12-22T12:12:57.663Z,98355.47
2022-12-22T12:16:13.421Z,98340.06
2022-12-22T12:19:09.667Z,98365.63
2022-12-22T12:22:03.770Z,98371.56
2022-12-22T12:24:59.784Z,98352.69
2022-12-22T12:28:13.438Z,98385.91
2022-12-22T12:31:01.148Z,98370.03
2022-12-22T12:33:53.043Z,98383.06
2022-12-22T12:36:53.310Z,98390.09
2022-12-22T12:39:44.238Z,98374.78
2022-12-22T12:42:39.587Z,98385.03
2022-12-22T12:45:32.057Z,98403.13
2022-12-22T12:48:24.483Z,98405.69
2022-12-22T12:51:46.363Z,98407.41
2022-12-22T12:54:32.672Z,98411.78
2022-12-22T12:57:47.263Z,98414.34
2022-12-22T13:00:33.684Z,98419.44
2022-12-22T13:03:53.333Z,98407.38
2022-12-22T13:06:51.846Z,98414.22
2022-12-22T13:10:08.337Z,98421.94
2022-12-22T13:12:54.854Z,98386.88
2022-12-22T13:15:42.794Z,98423.84
2022-12-22T13:18:29.503Z,98431.56
2022-12-22T13:21:52.334Z,98417.63
2022-12-22T13:24:49.051Z,98443.25
2022-12-22T13:27:36.599Z,98444.97
2022-12-22T13:30:23.167Z,98444.06
2022-12-22T13:33:15.565Z,98459.69
2022-12-22T13:36:03.329Z,98433.75
2022-12-22T13:39:02.851Z,98467.06
2022-12-22T13:41:50.885Z,98474.06
2022-12-22T13:44:38.575Z,98457.69
2022-12-22T13:47:25.567Z,98468.81
2022-12-22T13:50:26.305Z,98472.28
2022-12-22T13:53:42.114Z,98488.59
2022-12-22T13:56:34.873Z,98491.06
2022-12-22T13:59:36.932Z,98492.94
2022-12-22T14:02:23.713Z,98508.56
2022-12-22T14:05:13.472Z,98515.56
2022-12-22T14:08:03.223Z,98517.16
2022-12-22T14:10:50.295Z,98521.50
2022-12-22T14:13:39.534Z,98515.28
2022-12-22T14:16:25.932Z,98505.78
2022-12-22T14:19:17.689Z,98520.38
2022-12-22T14:22:08.646Z,98524.81
2022-12-22T14:24:59.658Z,98527.47
2022-12-22T14:27:48.855Z,98530.97
2022-12-22T14:30:41.335Z,98522.34
2022-12-22T14:33:33.613Z,98530.13
2022-12-22T14:36:29.810Z,98522.44
2022-12-22T14:39:33.337Z,98512.22
2022-12-22T14:42:19.992Z,98510.44
2022-12-22T14:45:15.282Z,98511.38
2022-12-22T14:48:01.916Z,98517.31
2022-12-22T14:50:50.195Z,98518.22
2022-12-22T14:53:44.958Z,98541.47
2022-12-22T14:56:31.409Z,98528.63
2022-12-22T14:59:27.711Z,98543.22
2022-12-22T15:02:36.634Z,98529.53
2022-12-22T15:05:33.264Z,98543.38
2022-12-22T15:08:40.086Z,98535.63
2022-12-22T15:11:26.906Z,98541.75
2022-12-22T15:14:19.662Z,98527.16
2022-12-22T15:17:15.203Z,98543.41
2022-12-22T15:20:01.844Z,98532.25
2022-12-22T15:22:48.472Z,98548.63
2022-12-22T15:25:35.192Z,98539.97
2022-12-22T15:28:21.558Z,98554.72
2022-12-22T15:31:17.436Z,98555.56
2022-12-22T15:34:10.056Z,98550.38
2022-12-22T15:36:56.257Z,98541.03
2022-12-22T15:39:42.559Z,98541.88
2022-12-22T15:42:29.065Z,98552.38
2022-12-22T15:45:17.005Z,98543.91
2022-12-22T15:48:06.271Z,98555.94
2022-12-22T15:50:54.971Z,98539.59
2022-12-22T15:53:41.518Z,98537.06
2022-12-22T15:56:32.054Z,98555.06
2022-12-22T15:59:23.570Z,98551.84
2022-12-22T16:02:14.304Z,98549.09
2022-12-22T16:05:00.892Z,98538.75
2022-12-22T16:07:47.423Z,98521.56
2022-12-22T16:10:34.648Z,98541.34
2022-12-22T16:13:24.233Z,98547.38
2022-12-22T16:16:11.661Z,98536.22
2022-12-22T16:18:58.270Z,98506.38
2022-12-22T16:21:48.760Z,98516.53
2022-12-22T16:24:36.138Z,98537.22
2022-12-22T16:27:22.539Z,98528.66
2022-12-22T16:30:22.350Z,98532.16
2022-12-22T16:33:11.924Z,98527.84
2022-12-22T16:35:58.385Z,98523.69
2022-12-22T16:38:45.933Z,98525.53
2022-12-22T16:41:32.615Z,98533.25
2022-12-22T16:47:33.152Z,98531.41
2022-12-22T16:50:32.125Z,98526.28
2022-12-22T16:53:18.671Z,98504.09
2022-12-22T16:56:05.127Z,98527.38
2022-12-22T16:58:51.447Z,98536.06
2022-12-22T17:01:52.307Z,98534.38
2022-12-22T17:04:38.759Z,98523.25
2022-12-22T17:07:25.289Z,98526.72
2022-12-22T17:10:15.316Z,98525.88
2022-12-22T17:13:02.757Z,98528.44
2022-12-22T17:15:49.391Z,98524.13
2022-12-22T17:18:36.258Z,98529.31
2022-12-22T17:21:22.991Z,98519.78
2022-12-22T17:24:12.802Z,98505.19
2022-12-22T17:27:05.721Z,98511.22
2022-12-22T17:29:53.765Z,98508.59
2022-12-22T17:32:40.322Z,98495.72
2022-12-22T17:35:28.887Z,98506.03
2022-12-22T17:38:18.448Z,98468.09
2022-12-22T17:41:04.757Z,98462.06
2022-12-22T17:43:51.365Z,98483.56
2022-12-22T17:46:37.770Z,98490.38
2022-12-22T17:49:24.130Z,98483.38
2022-12-22T17:52:22.120Z,98473.13
2022-12-22T17:55:49.955Z,98465.31
2022-12-22T17:58:27.510Z,98467.03
2022-12-22T18:01:32.105Z,98440.41
2022-12-22T18:04:18.743Z,98453.31
2022-12-22T18:07:05.172Z,98431.78
2022-12-22T18:09:58.924Z,98438.59
2022-12-22T18:12:45.619Z,98438.72
2022-12-22T18:15:32.181Z,98427.44
2022-12-22T18:18:18.656Z,98429.16
2022-12-22T18:21:08.121Z,98421.53
2022-12-22T18:23:54.728Z,98400.03
2022-12-22T18:26:40.771Z,98413.63
2022-12-22T18:29:27.264Z,98411.13
2022-12-22T18:32:22.926Z,98412.88
2022-12-22T18:35:13.381Z,98389.75
2022-12-22T18:38:00.290Z,98401.66
2022-12-22T18:40:47.745Z,98393.16
2022-12-22T18:43:33.928Z,98396.53
2022-12-22T18:46:20.945Z,98403.44
2022-12-22T18:49:07.434Z,98384.47
2022-12-22T18:51:53.917Z,98401.72
2022-12-22T18:54:40.620Z,98403.38
2022-12-22T18:57:27.040Z,98410.25
2022-12-22T19:00:17.945Z,98399.09
2022-12-22T19:03:15.668Z,98405.13
2022-12-22T19:06:02.241Z,98399.75
2022-12-22T19:08:49.449Z,98398.16
2022-12-22T19:11:36.016Z,98393.00
2022-12-22T19:14:22.765Z,98363.91
2022-12-22T19:17:17.996Z,98365.69
2022-12-22T19:20:04.649Z,98376.66
2022-12-22T19:22:51.687Z,98375.09
2022-12-22T19:25:38.039Z,98362.91
2022-12-22T19:28:31.990Z,98376.78
2022-12-22T19:31:31.695Z,98363.09
2022-12-22T19:34:21.138Z,98356.25
2022-12-22T19:37:09.477Z,98338.06
2022-12-22T19:39:56.111Z,98349.94
2022-12-22T19:42:44.853Z,98347.31
2022-12-22T19:45:36.800Z,98354.28
2022-12-22T19:48:26.229Z,98358.63
2022-12-22T19:51:17.817Z,98344.09
2022-12-22T19:54:06.415Z,98340.72
2022-12-22T19:56:55.930Z,98346.69
2022-12-22T19:59:46.123Z,98352.63
2022-12-22T20:02:33.370Z,98344.88
2022-12-22T20:05:22.779Z,98343.19
2022-12-22T20:08:09.494Z,98339.78
2022-12-22T20:10:58.659Z,98327.00
2022-12-22T20:13:46.661Z,98298.63
2022-12-22T20:16:33.162Z,98327.59
2022-12-22T20:19:19.961Z,98315.53
2022-12-22T20:22:06.518Z,98303.72
2022-12-22T20:24:54.582Z,98294.31
2022-12-22T20:27:41.270Z,98299.53
2022-12-22T20:30:30.393Z,98304.59
2022-12-22T20:33:19.562Z,98298.38
2022-12-22T20:36:18.689Z,98291.47
2022-12-22T20:39:13.880Z,98279.47
2022-12-22T20:42:00.566Z,98284.56
2022-12-22T20:45:03.005Z,98277.75
2022-12-22T20:47:52.265Z,98287.28
2022-12-22T20:50:38.396Z,98281.38
2022-12-22T20:53:24.970Z,98282.34
2022-12-22T20:56:31.606Z,98280.69
2022-12-22T20:59:20.917Z,98277.13
2022-12-22T21:02:22.087Z,98277.09
2022-12-22T21:05:08.975Z,98274.56
2022-12-22T21:07:55.508Z,98270.31
2022-12-22T21:10:43.766Z,98270.28
2022-12-22T21:13:30.090Z,98268.63
2022-12-22T21:16:19.032Z,98262.72
2022-12-22T21:19:05.584Z,98236.09
2022-12-22T21:21:52.003Z,98243.78
2022-12-22T21:24:38.538Z,98245.47
2022-12-22T21:27:25.332Z,98233.50
2022-12-22T21:30:21.497Z,98244.72
2022-12-22T21:33:08.767Z,98231.81
2022-12-22T21:35:57.083Z,98237.84
2022-12-22T21:38:43.548Z,98224.97
2022-12-22T21:41:48.283Z,98202.66
2022-12-22T21:44:35.808Z,98212.16
2022-12-22T21:47:22.046Z,98194.88
2022-12-22T21:50:18.459Z,98189.81
2022-12-22T21:53:04.999Z,98187.25
2022-12-22T21:55:51.666Z,98188.13
2022-12-22T21:58:38.229Z,98176.88
2022-12-22T22:01:24.686Z,98172.63
2022-12-22T22:04:11.640Z,98153.78
2022-12-22T22:06:57.987Z,98121.28
2022-12-22T22:09:44.751Z,98147.78
2022-12-22T22:12:35.122Z,98127.28
2022-12-22T22:15:24.154Z,98143.59
2022-12-22T22:18:19.355Z,98118.72
2022-12-22T22:21:08.622Z,98122.13
2022-12-22T22:23:54.775Z,98123.81
2022-12-22T22:26:43.919Z,98086.81
2022-12-22T22:29:30.404Z,98118.59
2022-12-22T22:32:17.009Z,98109.97
2022-12-22T22:35:03.660Z,98107.38
2022-12-22T22:37:51.329Z,98104.03
2022-12-22T22:40:37.850Z,98095.47
2022-12-22T22:43:24.275Z,98096.31
2022-12-22T22:46:14.241Z,98068.81
2022-12-22T22:49:05.340Z,98084.16
2022-12-22T22:51:51.598Z,98061.81
2022-12-22T22:54:37.895Z,98071.13
2022-12-22T22:57:26.803Z,98066.00
2022-12-22T23:00:16.373Z,98048.81
2022-12-22T23:03:04.514Z,98057.38
2022-12-22T23:05:50.771Z,98050.44
2022-12-22T23:08:37.543Z,98039.22
2022-12-22T23:11:24.354Z,98048.69
2022-12-22T23:14:10.740Z,98046.16
2022-12-22T23:16:57.420Z,98040.22
2022-12-22T23:19:44.152Z,98042.00
2022-12-22T23:22:30.730Z,98029.19
2022-12-22T23:25:17.115Z,98035.94
2022-12-22T23:28:03.891Z,98024.75
2022-12-22T23:30:52.890Z,98025.59
2022-12-22T23:33:39.398Z,98018.72
2022-12-22T23:36:26.155Z,98027.25
2022-12-22T23:39:13.706Z,98021.94
2022-12-22T23:42:00.314Z,98007.47
2022-12-22T23:44:48.059Z,98012.47
2022-12-22T23:47:34.614Z,98012.63
2022-12-22T23:50:21.527Z,97987.09
2022-12-22T23:53:08.058Z,98009.28
2022-12-22T23:55:54.329Z,98014.56
2022-12-22T23:58:40.662Z,98011.91
